Time,TemperatureF,DewpointF,PressureIn,WindDirection,WindDirectionDegrees,WindSpeedMPH,WindSpeedGustMPH,Humidity,HourlyPrecipIn,Conditions,Clouds,dailyrainin,SoftwareType,DateUTC
2013-01-10 00:00:00,32.7,21.5,30.33,SSW,195,3.0,5.0,63,0.00,,CLR,0.00,VWS V14.01,2013-01-10 05:00:00,
2013-01-10 00:05:00,32.7,21.5,30.33,SSW,195,2.0,6.0,63,0.00,,CLR,0.00,VWS V14.01,2013-01-10 05:05:00,
2013-01-10 00:12:00,32.9,21.3,30.33,SSW,195,3.0,5.0,62,0.00,,CLR,0.00,VWS V14.01,2013-01-10 05:12:00,
2013-01-10 00:20:00,32.8,21.2,30.34,SSW,195,3.0,5.0,62,0.00,,CLR,0.00,VWS V14.01,2013-01-10 05:20:00,
2013-01-10 00:25:00,32.9,21.3,30.34,SSW,195,3.0,5.0,62,0.00,,CLR,0.00,VWS V14.01,2013-01-10 05:25:00,
2013-01-10 00:30:00,32.8,21.2,30.35,SSW,195,3.0,5.0,62,0.00,,CLR,0.00,VWS V14.01,2013-01-10 05:30:00,
2013-01-10 00:40:00,32.4,21.2,30.35,South,189,5.0,6.0,63,0.00,,CLR,0.00,VWS V14.01,2013-01-10 05:40:00,
2013-01-10 00:45:00,32.2,21.0,30.35,South,189,3.0,6.0,63,0.00,,CLR,0.00,VWS V14.01,2013-01-10 05:45:00,
2013-01-10 00:55:00,32.1,20.9,30.35,South,189,3.0,4.0,63,0.00,,CLR,0.00,VWS V14.01,2013-01-10 05:55:00,
2013-01-10 01:00:00,32.4,21.2,30.35,South,189,2.0,4.0,63,0.00,,CLR,0.00,VWS V14.01,2013-01-10 06:00:00,
2013-01-10 01:10:00,32.2,21.0,30.35,South,189,0.0,2.0,63,0.00,,CLR,0.00,VWS V14.01,2013-01-10 06:10:00,
2013-01-10 01:15:00,31.8,20.7,30.35,South,189,0.0,1.0,63,0.00,,CLR,0.00,VWS V14.01,2013-01-10 06:15:00,
2013-01-10 01:20:00,30.7,20.3,30.35,South,189,1.0,2.0,65,0.00,,CLR,0.00,VWS V14.01,2013-01-10 06:20:00,
2013-01-10 01:25:00,29.8,20.2,30.35,South,189,2.0,2.0,67,0.00,,CLR,0.00,VWS V14.01,2013-01-10 06:25:00,
2013-01-10 01:30:00,29.3,20.4,30.35,South,189,2.0,2.0,69,0.00,,CLR,0.00,VWS V14.01,2013-01-10 06:30:00,
2013-01-10 01:35:00,29.1,20.5,30.35,South,189,0.0,2.0,70,0.00,,CLR,0.00,VWS V14.01,2013-01-10 06:35:00,
2013-01-10 01:40:00,28.5,20.0,30.35,South,189,0.0,1.0,70,0.00,,CLR,0.00,VWS V14.01,2013-01-10 06:40:00,
2013-01-10 01:45:00,28.4,20.2,30.35,South,189,0.0,0.0,71,0.00,,CLR,0.00,VWS V14.01,2013-01-10 06:45:00,
2013-01-10 01:50:00,28.1,20.2,30.35,South,189,0.0,1.0,72,0.00,,CLR,0.00,VWS V14.01,2013-01-10 06:50:00,
2013-01-10 01:55:00,28.4,20.5,30.35,South,189,0.0,1.0,72,0.00,,CLR,0.00,VWS V14.01,2013-01-10 06:55:00,
2013-01-10 02:00:00,28.7,20.8,30.35,South,189,0.0,0.0,72,0.00,,CLR,0.00,VWS V14.01,2013-01-10 07:00:00,
2013-01-10 02:05:00,29.0,21.1,30.35,South,189,0.0,0.0,72,0.00,,CLR,0.00,VWS V14.01,2013-01-10 07:05:00,
2013-01-10 02:10:00,29.1,21.2,30.35,South,189,0.0,0.0,72,0.00,,CLR,0.00,VWS V14.01,2013-01-10 07:10:00,
2013-01-10 02:15:00,29.1,21.2,30.35,South,189,0.0,0.0,72,0.00,,CLR,0.00,VWS V14.01,2013-01-10 07:15:00,
2013-01-10 02:20:00,28.5,20.6,30.35,South,189,0.0,1.0,72,0.00,,CLR,0.00,VWS V14.01,2013-01-10 07:20:00,
2013-01-10 02:30:00,27.2,20.0,30.35,South,189,0.0,1.0,74,0.00,,CLR,0.00,VWS V14.01,2013-01-10 07:30:00,
2013-01-10 02:40:00,26.3,19.8,30.35,South,189,0.0,1.0,76,0.00,,CLR,0.00,VWS V14.01,2013-01-10 07:40:00,
2013-01-10 02:45:00,25.8,19.6,30.35,South,189,0.0,0.0,77,0.00,,CLR,0.00,VWS V14.01,2013-01-10 07:45:00,
2013-01-10 02:50:00,25.6,19.4,30.35,South,189,0.0,1.0,77,0.00,,CLR,0.00,VWS V14.01,2013-01-10 07:50:00,
2013-01-10 03:00:00,25.0,19.4,30.35,South,189,0.0,0.0,79,0.00,,CLR,0.00,VWS V14.01,2013-01-10 08:00:00,
2013-01-10 03:10:00,25.0,19.7,30.35,South,189,0.0,0.0,80,0.00,,CLR,0.00,VWS V14.01,2013-01-10 08:10:00,
2013-01-10 03:15:00,25.1,19.8,30.34,South,189,0.0,0.0,80,0.00,,CLR,0.00,VWS V14.01,2013-01-10 08:15:00,
2013-01-10 03:20:00,25.3,20.3,30.34,South,189,0.0,0.0,81,0.00,,CLR,0.00,VWS V14.01,2013-01-10 08:20:00,
2013-01-10 03:25:00,25.3,20.3,30.34,South,189,0.0,0.0,81,0.00,,CLR,0.00,VWS V14.01,2013-01-10 08:25:00,
2013-01-10 03:30:00,25.3,20.3,30.34,South,189,0.0,0.0,81,0.00,,CLR,0.00,VWS V14.01,2013-01-10 08:30:00,
2013-01-10 03:35:00,25.3,20.3,30.34,South,189,0.0,0.0,81,0.00,,CLR,0.00,VWS V14.01,2013-01-10 08:35:00,
2013-01-10 03:40:00,25.3,20.3,30.34,South,189,0.0,0.0,81,0.00,,CLR,0.00,VWS V14.01,2013-01-10 08:40:00,
2013-01-10 03:45:00,25.6,20.6,30.34,South,189,0.0,0.0,81,0.00,,CLR,0.00,VWS V14.01,2013-01-10 08:45:00,
2013-01-10 03:50:00,25.6,20.6,30.34,South,189,0.0,0.0,81,0.00,,CLR,0.00,VWS V14.01,2013-01-10 08:50:00,
2013-01-10 03:55:00,25.7,20.7,30.34,South,189,0.0,0.0,81,0.00,,CLR,0.00,VWS V14.01,2013-01-10 08:55:00,
2013-01-10 04:00:00,25.8,20.8,30.35,South,189,0.0,0.0,81,0.00,,CLR,0.00,VWS V14.01,2013-01-10 09:00:00,
2013-01-10 04:05:00,26.0,20.7,30.35,South,189,0.0,0.0,80,0.00,,CLR,0.00,VWS V14.01,2013-01-10 09:05:00,
2013-01-10 04:10:00,25.6,20.0,30.35,South,189,1.0,1.0,79,0.00,,CLR,0.00,VWS V14.01,2013-01-10 09:10:00,
2013-01-10 04:20:00,25.1,19.8,30.34,South,189,2.0,2.0,80,0.00,,CLR,0.00,VWS V14.01,2013-01-10 09:20:00,
2013-01-10 04:25:00,24.8,19.8,30.34,South,189,0.0,2.0,81,0.00,,CLR,0.00,VWS V14.01,2013-01-10 09:25:00,
2013-01-10 04:30:00,24.8,19.8,30.34,South,189,0.0,1.0,81,0.00,,CLR,0.00,VWS V14.01,2013-01-10 09:30:00,
2013-01-10 04:35:00,24.8,20.1,30.34,South,189,0.0,0.0,82,0.00,,CLR,0.00,VWS V14.01,2013-01-10 09:35:00,
2013-01-10 04:40:00,24.7,20.0,30.34,South,189,0.0,0.0,82,0.00,,CLR,0.00,VWS V14.01,2013-01-10 09:40:00,
2013-01-10 04:50:00,24.4,19.7,30.34,South,189,0.0,0.0,82,0.00,,CLR,0.00,VWS V14.01,2013-01-10 09:50:00,
2013-01-10 04:55:00,24.1,19.4,30.34,South,189,0.0,0.0,82,0.00,,CLR,0.00,VWS V14.01,2013-01-10 09:55:00,
2013-01-10 05:00:00,23.9,19.2,30.33,South,189,0.0,1.0,82,0.00,,CLR,0.00,VWS V14.01,2013-01-10 10:00:00,
2013-01-10 05:05:00,24.1,19.7,30.33,South,189,0.0,0.0,83,0.00,,CLR,0.00,VWS V14.01,2013-01-10 10:05:00,
2013-01-10 05:10:00,24.2,19.8,30.33,South,189,1.0,1.0,83,0.00,,CLR,0.00,VWS V14.01,2013-01-10 10:10:00,
2013-01-10 05:20:00,24.4,20.0,30.33,South,189,0.0,0.0,83,0.00,,CLR,0.00,VWS V14.01,2013-01-10 10:20:00,
2013-01-10 05:25:00,24.7,20.3,30.33,South,189,0.0,1.0,83,0.00,,CLR,0.00,VWS V14.01,2013-01-10 10:25:00,
2013-01-10 05:30:00,24.4,19.7,30.33,South,189,0.0,1.0,82,0.00,,CLR,0.00,VWS V14.01,2013-01-10 10:30:00,
2013-01-10 05:35:00,24.7,20.3,30.33,South,189,0.0,2.0,83,0.00,,CLR,0.00,VWS V14.01,2013-01-10 10:35:00,
2013-01-10 05:40:00,24.8,20.1,30.33,South,189,0.0,0.0,82,0.00,,CLR,0.00,VWS V14.01,2013-01-10 10:40:00,
2013-01-10 05:50:00,24.2,19.5,30.32,South,189,0.0,0.0,82,0.00,,CLR,0.00,VWS V14.01,2013-01-10 10:50:00,
2013-01-10 05:55:00,24.2,19.5,30.32,South,189,0.0,0.0,82,0.00,,CLR,0.00,VWS V14.01,2013-01-10 10:55:00,
2013-01-10 06:00:00,24.1,19.4,30.33,South,189,0.0,0.0,82,0.00,,CLR,0.00,VWS V14.01,2013-01-10 11:00:00,
2013-01-10 06:05:00,24.1,19.7,30.33,South,189,0.0,0.0,83,0.00,,CLR,0.00,VWS V14.01,2013-01-10 11:05:00,
2013-01-10 06:15:00,24.5,20.1,30.33,South,189,0.0,0.0,83,0.00,,CLR,0.00,VWS V14.01,2013-01-10 11:15:00,
2013-01-10 06:20:00,24.4,20.0,30.33,South,189,0.0,0.0,83,0.00,,CLR,0.00,VWS V14.01,2013-01-10 11:20:00,
2013-01-10 06:25:00,24.2,19.8,30.33,South,189,0.0,1.0,83,0.00,,CLR,0.00,VWS V14.01,2013-01-10 11:25:00,
2013-01-10 06:30:00,24.1,19.7,30.33,South,189,0.0,1.0,83,0.00,,CLR,0.00,VWS V14.01,2013-01-10 11:30:00,
2013-01-10 06:35:00,24.2,19.8,30.33,South,189,0.0,0.0,83,0.00,,CLR,0.00,VWS V14.01,2013-01-10 11:35:00,
2013-01-10 06:45:00,24.5,20.1,30.33,South,189,0.0,0.0,83,0.00,,CLR,0.00,VWS V14.01,2013-01-10 11:45:00,
2013-01-10 06:50:00,24.4,19.7,30.33,South,189,0.0,1.0,82,0.00,,CLR,0.00,VWS V14.01,2013-01-10 11:50:00,
2013-01-10 07:00:00,24.2,19.8,30.34,South,189,0.0,0.0,83,0.00,,CLR,0.00,VWS V14.01,2013-01-10 12:00:00,
2013-01-10 07:05:00,24.2,19.8,30.34,South,189,0.0,1.0,83,0.00,,CLR,0.00,VWS V14.01,2013-01-10 12:05:00,
2013-01-10 07:10:00,23.9,19.2,30.34,South,189,0.0,1.0,82,0.00,,CLR,0.00,VWS V14.01,2013-01-10 12:10:00,
2013-01-10 07:15:00,24.1,19.7,30.34,South,189,1.0,1.0,83,0.00,,CLR,0.00,VWS V14.01,2013-01-10 12:15:00,
2013-01-10 07:20:00,24.2,19.8,30.34,South,189,0.0,1.0,83,0.00,,CLR,0.00,VWS V14.01,2013-01-10 12:20:00,
2013-01-10 07:25:00,23.9,19.2,30.34,South,189,0.0,0.0,82,0.00,,CLR,0.00,VWS V14.01,2013-01-10 12:25:00,
2013-01-10 07:30:00,23.9,19.5,30.34,South,189,0.0,1.0,83,0.00,,CLR,0.00,VWS V14.01,2013-01-10 12:30:00,
2013-01-10 07:40:00,24.2,19.8,30.34,South,189,0.0,1.0,83,0.00,,CLR,0.00,VWS V14.01,2013-01-10 12:40:00,
2013-01-10 07:45:00,24.2,19.8,30.34,South,189,0.0,2.0,83,0.00,,CLR,0.00,VWS V14.01,2013-01-10 12:45:00,
2013-01-10 07:50:00,24.2,19.8,30.34,South,189,0.0,0.0,83,0.00,,CLR,0.00,VWS V14.01,2013-01-10 12:50:00,
2013-01-10 08:00:00,24.4,20.3,30.34,South,189,0.0,0.0,84,0.00,,CLR,0.00,VWS V14.01,2013-01-10 13:00:00,
2013-01-10 08:05:00,24.4,20.3,30.34,South,189,0.0,0.0,84,0.00,,CLR,0.00,VWS V14.01,2013-01-10 13:05:00,
2013-01-10 08:10:00,25.0,21.1,30.34,South,189,0.0,1.0,85,0.00,,CLR,0.00,VWS V14.01,2013-01-10 13:10:00,
2013-01-10 08:15:00,25.3,21.1,30.34,South,189,0.0,0.0,84,0.00,,CLR,0.00,VWS V14.01,2013-01-10 13:15:00,
2013-01-10 08:20:00,25.4,21.2,30.34,South,189,0.0,0.0,84,0.00,,CLR,0.00,VWS V14.01,2013-01-10 13:20:00,
2013-01-10 08:25:00,25.4,21.2,30.34,South,189,0.0,0.0,84,0.00,,CLR,0.00,VWS V14.01,2013-01-10 13:25:00,
2013-01-10 08:35:00,25.4,21.2,30.34,South,189,0.0,1.0,84,0.00,,CLR,0.00,VWS V14.01,2013-01-10 13:35:00,
2013-01-10 08:45:00,25.4,21.2,30.34,South,189,0.0,0.0,84,0.00,,CLR,0.00,VWS V14.01,2013-01-10 13:45:00,
2013-01-10 08:50:00,25.7,21.5,30.34,South,189,1.0,2.0,84,0.00,,CLR,0.00,VWS V14.01,2013-01-10 13:50:00,
2013-01-10 08:55:00,26.4,22.5,30.34,SE,131,2.0,3.0,85,0.00,,CLR,0.00,VWS V14.01,2013-01-10 13:55:00,
2013-01-10 09:00:00,27.2,23.3,30.33,SE,131,3.0,3.0,85,0.00,,CLR,0.00,VWS V14.01,2013-01-10 14:00:00,
2013-01-10 09:05:00,28.8,24.9,30.33,ESE,109,2.0,6.0,85,0.00,,CLR,0.00,VWS V14.01,2013-01-10 14:05:00,
2013-01-10 09:10:00,30.1,25.9,30.33,ESE,106,5.0,5.0,84,0.00,,CLR,0.00,VWS V14.01,2013-01-10 14:10:00,
2013-01-10 09:15:00,31.0,26.2,30.33,ESE,106,3.0,5.0,82,0.00,,CLR,0.00,VWS V14.01,2013-01-10 14:15:00,
2013-01-10 09:20:00,31.6,26.1,30.33,ESE,103,2.0,5.0,80,0.00,,CLR,0.00,VWS V14.01,2013-01-10 14:20:00,
2013-01-10 09:25:00,31.9,25.8,30.33,East,99,2.0,5.0,78,0.00,,CLR,0.00,VWS V14.01,2013-01-10 14:25:00,
2013-01-10 09:30:00,32.4,26.0,30.32,East,96,3.0,6.0,77,0.00,,CLR,0.00,VWS V14.01,2013-01-10 14:30:00,
2013-01-10 09:35:00,32.4,25.7,30.32,East,95,2.0,5.0,76,0.00,,CLR,0.00,VWS V14.01,2013-01-10 14:35:00,
2013-01-10 09:40:00,32.5,25.8,30.32,East,80,5.0,7.0,76,0.00,,CLR,0.00,VWS V14.01,2013-01-10 14:40:00,
2013-01-10 09:45:00,32.5,25.8,30.31,East,86,6.0,6.0,76,0.00,,CLR,0.00,VWS V14.01,2013-01-10 14:45:00,
2013-01-10 09:50:00,33.1,26.0,30.31,ESE,102,2.0,6.0,75,0.00,,CLR,0.00,VWS V14.01,2013-01-10 14:50:00,
2013-01-10 09:55:00,33.5,25.8,30.31,ESE,109,3.0,8.0,73,0.00,,CLR,0.00,VWS V14.01,2013-01-10 14:55:00,
2013-01-10 10:05:00,34.1,25.7,30.31,ESE,106,7.0,8.0,71,0.00,,CLR,0.00,VWS V14.01,2013-01-10 15:05:00,
2013-01-10 10:10:00,34.4,25.6,30.31,ESE,107,5.0,10.0,70,0.00,,CLR,0.00,VWS V14.01,2013-01-10 15:10:00,
2013-01-10 10:15:00,34.7,25.9,30.31,ESE,107,6.0,8.0,70,0.00,,CLR,0.00,VWS V14.01,2013-01-10 15:15:00,
2013-01-10 10:20:00,35.0,26.2,30.31,ESE,114,6.0,10.0,70,0.00,,CLR,0.00,VWS V14.01,2013-01-10 15:20:00,
2013-01-10 10:25:00,35.5,26.4,30.31,ESE,106,7.0,7.0,69,0.00,,CLR,0.00,VWS V14.01,2013-01-10 15:25:00,
2013-01-10 10:30:00,35.8,26.3,30.31,ESE,116,4.0,8.0,68,0.00,,CLR,0.00,VWS V14.01,2013-01-10 15:30:00,
2013-01-10 10:40:00,36.2,26.0,30.31,SE,127,6.0,11.0,66,0.00,,CLR,0.00,VWS V14.01,2013-01-10 15:40:00,
2013-01-10 10:45:00,36.3,25.7,30.31,ESE,110,9.0,12.0,65,0.00,,CLR,0.00,VWS V14.01,2013-01-10 15:45:00,
2013-01-10 10:50:00,36.3,25.7,30.31,East,99,6.0,14.0,65,0.00,,CLR,0.00,VWS V14.01,2013-01-10 15:50:00,
2013-01-10 10:55:00,36.3,25.7,30.31,ESE,103,9.0,12.0,65,0.00,,CLR,0.00,VWS V14.01,2013-01-10 15:55:00,
2013-01-10 11:00:00,36.5,25.9,30.30,ESE,117,11.0,12.0,65,0.00,,CLR,0.00,VWS V14.01,2013-01-10 16:00:00,
2013-01-10 11:05:00,36.5,25.9,30.30,ESE,114,9.0,11.0,65,0.00,,CLR,0.00,VWS V14.01,2013-01-10 16:05:00,
2013-01-10 11:10:00,36.6,26.0,30.30,ESE,109,8.0,12.0,65,0.00,,CLR,0.00,VWS V14.01,2013-01-10 16:10:00,
2013-01-10 11:15:00,36.6,26.0,30.29,ESE,114,11.0,11.0,65,0.00,,CLR,0.00,VWS V14.01,2013-01-10 16:15:00,
2013-01-10 11:25:00,36.9,26.2,30.29,ESE,116,3.0,10.0,65,0.00,,CLR,0.00,VWS V14.01,2013-01-10 16:25:00,
2013-01-10 11:30:00,37.2,26.5,30.29,ESE,119,13.0,13.0,65,0.00,,CLR,0.00,VWS V14.01,2013-01-10 16:30:00,
2013-01-10 11:40:00,37.3,26.6,30.29,ESE,120,8.0,12.0,65,0.00,,CLR,0.00,VWS V14.01,2013-01-10 16:40:00,
2013-01-10 11:45:00,37.3,26.3,30.28,ESE,107,8.0,14.0,64,0.00,,CLR,0.00,VWS V14.01,2013-01-10 16:45:00,
2013-01-10 11:50:00,37.3,26.3,30.28,ESE,109,7.0,15.0,64,0.00,,CLR,0.00,VWS V14.01,2013-01-10 16:50:00,
2013-01-10 11:55:00,37.6,26.5,30.28,ESE,107,7.0,14.0,64,0.00,,CLR,0.00,VWS V14.01,2013-01-10 16:55:00,
2013-01-10 12:00:00,37.6,26.5,30.27,SE,130,8.0,16.0,64,0.00,,CLR,0.00,VWS V14.01,2013-01-10 17:00:00,
2013-01-10 12:05:00,37.8,26.7,30.27,ESE,116,4.0,10.0,64,0.00,,CLR,0.00,VWS V14.01,2013-01-10 17:05:00,
2013-01-10 12:10:00,38.0,26.9,30.27,ESE,117,11.0,11.0,64,0.00,,CLR,0.00,VWS V14.01,2013-01-10 17:10:00,
2013-01-10 12:15:00,37.9,26.5,30.26,ESE,110,7.0,12.0,63,0.00,,CLR,0.00,VWS V14.01,2013-01-10 17:15:00,
2013-01-10 12:25:00,38.2,26.7,30.26,ESE,109,10.0,12.0,63,0.00,,CLR,0.00,VWS V14.01,2013-01-10 17:25:00,
2013-01-10 12:30:00,38.0,26.5,30.25,SE,128,3.0,14.0,63,0.00,,CLR,0.00,VWS V14.01,2013-01-10 17:30:00,
2013-01-10 12:35:00,38.2,26.7,30.25,ESE,109,6.0,13.0,63,0.00,,CLR,0.00,VWS V14.01,2013-01-10 17:35:00,
2013-01-10 12:45:00,38.2,26.7,30.23,ESE,119,17.0,17.0,63,0.00,,CLR,0.00,VWS V14.01,2013-01-10 17:45:00,
2013-01-10 12:50:00,38.0,26.1,30.23,ESE,104,12.0,17.0,62,0.00,,CLR,0.00,VWS V14.01,2013-01-10 17:50:00,
2013-01-10 13:00:00,38.0,26.5,30.22,ESE,114,10.0,18.0,63,0.00,,CLR,0.00,VWS V14.01,2013-01-10 18:00:00,
2013-01-10 13:05:00,37.9,26.5,30.22,ESE,121,10.0,17.0,63,0.00,,CLR,0.00,VWS V14.01,2013-01-10 18:05:00,
2013-01-10 13:10:00,37.8,26.7,30.22,ESE,119,7.0,13.0,64,0.00,,CLR,0.00,VWS V14.01,2013-01-10 18:10:00,
2013-01-10 13:15:00,37.9,26.5,30.21,ESE,112,11.0,16.0,63,0.00,,CLR,0.00,VWS V14.01,2013-01-10 18:15:00,
2013-01-10 13:25:00,38.0,26.5,30.21,ESE,119,13.0,18.0,63,0.00,,CLR,0.00,VWS V14.01,2013-01-10 18:25:00,
2013-01-10 13:30:00,38.0,26.5,30.21,ESE,117,9.0,16.0,63,0.00,,CLR,0.00,VWS V14.01,2013-01-10 18:30:00,
2013-01-10 13:35:00,38.0,26.5,30.21,SE,131,11.0,14.0,63,0.00,,CLR,0.00,VWS V14.01,2013-01-10 18:35:00,
2013-01-10 13:40:00,38.2,27.1,30.21,SE,127,15.0,15.0,64,0.00,,CLR,0.00,VWS V14.01,2013-01-10 18:40:00,
2013-01-10 13:45:00,38.2,26.7,30.20,East,93,7.0,18.0,63,0.00,,CLR,0.00,VWS V14.01,2013-01-10 18:45:00,
2013-01-10 13:50:00,38.3,26.8,30.20,East,99,5.0,12.0,63,0.00,,CLR,0.00,VWS V14.01,2013-01-10 18:50:00,
2013-01-10 13:55:00,38.3,27.2,30.20,ESE,113,10.0,12.0,64,0.00,,CLR,0.00,VWS V14.01,2013-01-10 18:55:00,
2013-01-10 14:00:00,38.5,27.4,30.18,East,96,7.0,14.0,64,0.00,,CLR,0.00,VWS V14.01,2013-01-10 19:00:00,
2013-01-10 14:10:00,38.5,27.8,30.18,ESE,112,6.0,11.0,65,0.00,,CLR,0.00,VWS V14.01,2013-01-10 19:10:00,
2013-01-10 14:15:00,38.6,27.9,30.17,SE,126,9.0,13.0,65,0.00,,CLR,0.00,VWS V14.01,2013-01-10 19:15:00,
2013-01-10 14:20:00,38.8,27.7,30.17,ESE,107,6.0,14.0,64,0.00,,CLR,0.00,VWS V14.01,2013-01-10 19:20:00,
2013-01-10 14:25:00,38.9,27.4,30.17,ESE,104,7.0,14.0,63,0.00,,CLR,0.00,VWS V14.01,2013-01-10 19:25:00,
2013-01-10 14:30:00,39.2,28.1,30.15,East,92,6.0,14.0,64,0.00,,CLR,0.00,VWS V14.01,2013-01-10 19:30:00,
2013-01-10 14:35:00,39.5,27.6,30.15,ESE,114,11.0,13.0,62,0.00,,CLR,0.00,VWS V14.01,2013-01-10 19:35:00,
2013-01-10 14:40:00,39.6,27.3,30.15,East,100,7.0,14.0,61,0.00,,CLR,0.00,VWS V14.01,2013-01-10 19:40:00,
2013-01-10 14:45:00,39.6,26.9,30.14,East,89,7.0,11.0,60,0.00,,CLR,0.00,VWS V14.01,2013-01-10 19:45:00,
2013-01-10 14:50:00,39.9,27.2,30.14,East,93,6.0,11.0,60,0.00,,CLR,0.00,VWS V14.01,2013-01-10 19:50:00,
2013-01-10 15:00:00,39.9,27.2,30.14,ESE,114,11.0,11.0,60,0.00,,CLR,0.00,VWS V14.01,2013-01-10 20:00:00,
2013-01-10 15:10:00,39.9,27.2,30.14,ESE,120,11.0,16.0,60,0.00,,CLR,0.00,VWS V14.01,2013-01-10 20:10:00,
2013-01-10 15:20:00,39.8,27.1,30.14,ESE,112,10.0,13.0,60,0.00,,CLR,0.00,VWS V14.01,2013-01-10 20:20:00,
2013-01-10 15:30:00,39.3,27.0,30.14,East,100,7.0,12.0,61,0.00,,CLR,0.00,VWS V14.01,2013-01-10 20:30:00,
2013-01-10 15:35:00,39.2,27.3,30.14,ESE,113,11.0,16.0,62,0.00,,CLR,0.00,VWS V14.01,2013-01-10 20:35:00,
2013-01-10 15:40:00,39.1,27.2,30.14,ESE,103,7.0,14.0,62,0.00,,CLR,0.00,VWS V14.01,2013-01-10 20:40:00,
2013-01-10 15:50:00,38.8,27.3,30.12,East,96,7.0,15.0,63,0.00,,CLR,0.00,VWS V14.01,2013-01-10 20:50:00,
2013-01-10 15:55:00,38.9,27.4,30.12,ESE,106,7.0,13.0,63,0.00,,CLR,0.00,VWS V14.01,2013-01-10 20:55:00,
2013-01-10 16:00:00,39.1,28.0,30.12,East,82,6.0,12.0,64,0.00,,CLR,0.00,VWS V14.01,2013-01-10 21:00:00,
2013-01-10 16:10:00,39.2,27.7,30.12,ESE,106,8.0,17.0,63,0.00,,CLR,0.00,VWS V14.01,2013-01-10 21:10:00,
2013-01-10 16:15:00,39.2,27.7,30.11,ESE,106,6.0,17.0,63,0.00,,CLR,0.00,VWS V14.01,2013-01-10 21:15:00,
2013-01-10 16:20:00,39.2,27.3,30.11,ESE,109,9.0,14.0,62,0.00,,CLR,0.00,VWS V14.01,2013-01-10 21:20:00,
2013-01-10 16:25:00,39.2,27.7,30.11,SE,124,10.0,18.0,63,0.00,,CLR,0.00,VWS V14.01,2013-01-10 21:25:00,
2013-01-10 16:35:00,38.8,27.7,30.11,ESE,119,10.0,16.0,64,0.00,,CLR,0.00,VWS V14.01,2013-01-10 21:35:00,
2013-01-10 16:40:00,38.6,28.2,30.11,ESE,117,7.0,18.0,66,0.00,,CLR,0.00,VWS V14.01,2013-01-10 21:40:00,
2013-01-10 16:45:00,38.5,28.5,30.11,ESE,117,10.0,14.0,67,0.00,,CLR,0.00,VWS V14.01,2013-01-10 21:45:00,
2013-01-10 16:50:00,38.3,28.3,30.11,ESE,116,12.0,15.0,67,0.00,,CLR,0.00,VWS V14.01,2013-01-10 21:50:00,
2013-01-10 16:55:00,38.3,28.7,30.11,ESE,112,16.0,16.0,68,0.00,,CLR,0.00,VWS V14.01,2013-01-10 21:55:00,
2013-01-10 17:05:00,38.0,28.8,30.11,ESE,120,11.0,11.0,69,0.00,,CLR,0.00,VWS V14.01,2013-01-10 22:05:00,
2013-01-10 17:10:00,37.9,29.0,30.11,ESE,103,6.0,13.0,70,0.00,,CLR,0.00,VWS V14.01,2013-01-10 22:10:00,
2013-01-10 17:15:00,37.8,29.3,30.09,ESE,107,8.0,12.0,71,0.00,,CLR,0.00,VWS V14.01,2013-01-10 22:15:00,
2013-01-10 17:25:00,37.5,29.3,30.09,ESE,113,7.0,14.0,72,0.00,,CLR,0.00,VWS V14.01,2013-01-10 22:25:00,
2013-01-10 17:30:00,37.5,29.6,30.08,ESE,114,8.0,13.0,73,0.00,,CLR,0.00,VWS V14.01,2013-01-10 22:30:00,
2013-01-10 17:36:00,37.3,29.5,30.08,East,97,9.0,11.0,73,0.00,,CLR,0.00,VWS V14.01,2013-01-10 22:36:00,
2013-01-10 17:45:00,37.3,29.5,30.08,ESE,114,8.0,16.0,73,0.00,,CLR,0.00,VWS V14.01,2013-01-10 22:45:00,
2013-01-10 17:55:00,37.3,29.8,30.08,ESE,102,13.0,15.0,74,0.00,,CLR,0.00,VWS V14.01,2013-01-10 22:55:00,
2013-01-10 18:00:00,37.3,29.8,30.08,East,99,10.0,16.0,74,0.00,,SCT090,0.00,VWS V14.01,2013-01-10 23:00:00,
2013-01-10 18:10:00,37.3,29.8,30.08,ESE,106,4.0,11.0,74,0.00,,SCT090,0.00,VWS V14.01,2013-01-10 23:10:00,
2013-01-10 18:15:00,37.3,29.8,30.07,ESE,113,6.0,13.0,74,0.00,,SCT090,0.00,VWS V14.01,2013-01-10 23:15:00,
2013-01-10 18:20:00,37.3,30.1,30.07,ESE,104,7.0,11.0,75,0.00,,SCT090,0.00,VWS V14.01,2013-01-10 23:20:00,
2013-01-10 18:30:00,37.0,30.1,30.07,ESE,106,6.0,16.0,76,0.01,,SCT090,0.01,VWS V14.01,2013-01-10 23:30:00,
2013-01-10 18:35:00,37.0,30.5,30.07,ESE,106,11.0,14.0,77,0.02,,SCT090,0.02,VWS V14.01,2013-01-10 23:35:00,
2013-01-10 18:40:00,36.9,30.7,30.07,East,82,6.0,13.0,78,0.02,,SCT090,0.02,VWS V14.01,2013-01-10 23:40:00,
2013-01-10 18:45:00,36.8,30.9,30.06,SE,127,11.0,13.0,79,0.03,,SCT090,0.03,VWS V14.01,2013-01-10 23:45:00,
2013-01-10 18:55:00,36.6,31.3,30.06,ESE,112,7.0,17.0,81,0.03,,SCT090,0.03,VWS V14.01,2013-01-10 23:55:00,
2013-01-10 19:00:00,36.5,31.5,30.04,SE,127,10.0,14.0,82,0.03,,-RA,0.03,VWS V14.01,2013-01-11 00:00:00,
2013-01-10 19:10:00,36.3,31.6,30.04,East,100,4.0,13.0,83,0.03,,-RA,0.03,VWS V14.01,2013-01-11 00:10:00,
2013-01-10 19:15:00,36.2,31.5,30.04,ESE,112,7.0,14.0,83,0.04,,-RA,0.04,VWS V14.01,2013-01-11 00:15:00,
2013-01-10 19:20:00,36.2,31.8,30.04,ESE,114,8.0,17.0,84,0.05,,-RA,0.05,VWS V14.01,2013-01-11 00:20:00,
2013-01-10 19:25:00,36.2,31.8,30.04,ESE,107,6.0,12.0,84,0.07,,-RA,0.07,VWS V14.01,2013-01-11 00:25:00,
2013-01-10 19:30:00,36.2,32.1,30.02,ESE,106,7.0,17.0,85,0.08,,-RA,0.09,VWS V14.01,2013-01-11 00:30:00,
2013-01-10 19:35:00,36.2,32.1,30.02,ESE,119,10.0,12.0,85,0.09,,-RA,0.10,VWS V14.01,2013-01-11 00:35:00,
2013-01-10 19:40:00,36.3,32.2,30.02,East,92,5.0,11.0,85,0.09,,-RA,0.11,VWS V14.01,2013-01-11 00:40:00,
2013-01-10 19:50:00,36.3,32.5,30.01,ESE,123,8.0,14.0,86,0.10,,-RA,0.13,VWS V14.01,2013-01-11 00:50:00,
2013-01-10 19:55:00,36.3,32.5,30.01,East,95,11.0,18.0,86,0.10,,-RA,0.13,VWS V14.01,2013-01-11 00:55:00,
2013-01-10 20:05:00,36.3,32.5,30.00,ESE,109,12.0,17.0,86,0.11,,-RA,0.14,VWS V14.01,2013-01-11 01:05:00,
2013-01-10 20:10:00,36.5,32.4,30.00,East,100,7.0,14.0,85,0.12,,-RA,0.15,VWS V14.01,2013-01-11 01:10:00,
2013-01-10 20:15:00,36.5,32.4,29.98,ESE,103,11.0,16.0,85,0.12,,-RA,0.15,VWS V14.01,2013-01-11 01:15:00,
2013-01-10 20:20:00,36.5,32.4,29.98,ESE,121,13.0,16.0,85,0.11,,-RA,0.15,VWS V14.01,2013-01-11 01:20:00,
2013-01-10 20:25:00,36.5,32.1,29.98,ESE,103,6.0,16.0,84,0.10,,-RA,0.15,VWS V14.01,2013-01-11 01:25:00,
2013-01-10 20:30:00,36.5,32.1,29.97,ESE,120,17.0,17.0,84,0.08,,-RA,0.15,VWS V14.01,2013-01-11 01:30:00,
2013-01-10 20:35:00,36.6,32.2,29.97,ESE,119,10.0,17.0,84,0.06,,-RA,0.15,VWS V14.01,2013-01-11 01:35:00,
2013-01-10 20:45:00,36.6,32.2,29.96,East,100,6.0,17.0,84,0.04,,-RA,0.15,VWS V14.01,2013-01-11 01:45:00,
2013-01-10 20:50:00,36.6,32.5,29.96,ESE,116,11.0,16.0,85,0.03,,-RA,0.16,VWS V14.01,2013-01-11 01:50:00,
2013-01-10 20:55:00,36.6,32.5,29.96,ESE,120,10.0,16.0,85,0.03,,-RA,0.16,VWS V14.01,2013-01-11 01:55:00,
2013-01-10 21:00:00,36.6,32.8,29.96,ESE,119,7.0,13.0,86,0.03,,-RA,0.16,VWS V14.01,2013-01-11 02:00:00,
2013-01-10 21:10:00,36.6,32.8,29.96,ESE,104,8.0,14.0,86,0.02,,-RA,0.16,VWS V14.01,2013-01-11 02:10:00,
2013-01-10 21:15:00,36.6,33.1,29.94,ESE,119,9.0,12.0,87,0.01,,-RA,0.16,VWS V14.01,2013-01-11 02:15:00,
2013-01-10 21:20:00,36.8,33.3,29.94,East,85,11.0,14.0,87,0.04,,-RA,0.19,VWS V14.01,2013-01-11 02:20:00,
2013-01-10 21:25:00,36.8,33.6,29.94,ESE,110,10.0,18.0,88,0.06,,-RA,0.21,VWS V14.01,2013-01-11 02:25:00,
2013-01-10 21:30:00,36.8,33.6,29.93,ESE,113,12.0,16.0,88,0.08,,-RA,0.23,VWS V14.01,2013-01-11 02:30:00,
2013-01-10 21:35:00,36.9,34.0,29.93,ESE,117,12.0,12.0,89,0.08,,-RA,0.23,VWS V14.01,2013-01-11 02:35:00,
2013-01-10 21:40:00,37.0,34.1,29.93,ESE,110,10.0,17.0,89,0.09,,-RA,0.24,VWS V14.01,2013-01-11 02:40:00,
2013-01-10 21:45:00,37.0,34.1,29.93,ESE,106,10.0,18.0,89,0.11,,-RA,0.26,VWS V14.01,2013-01-11 02:45:00,
2013-01-10 21:50:00,37.0,34.1,29.93,ESE,113,14.0,15.0,89,0.14,,-RA,0.29,VWS V14.01,2013-01-11 02:50:00,
2013-01-10 21:55:00,37.0,34.3,29.93,ESE,106,7.0,15.0,90,0.18,,-RA,0.34,VWS V14.01,2013-01-11 02:55:00,
2013-01-10 22:00:00,37.0,34.3,29.92,ESE,110,13.0,16.0,90,0.22,,RA,0.38,VWS V14.01,2013-01-11 03:00:00,
2013-01-10 22:05:00,37.0,34.3,29.92,SE,127,5.0,13.0,90,0.23,,RA,0.39,VWS V14.01,2013-01-11 03:05:00,
2013-01-10 22:15:00,37.0,34.6,29.90,SE,126,8.0,13.0,91,0.27,,RA,0.43,VWS V14.01,2013-01-11 03:15:00,
2013-01-10 22:25:00,37.2,34.8,29.90,ESE,104,8.0,14.0,91,0.25,,RA,0.44,VWS V14.01,2013-01-11 03:25:00,
2013-01-10 22:30:00,37.3,34.9,29.90,ESE,109,10.0,16.0,91,0.23,,RA,0.44,VWS V14.01,2013-01-11 03:30:00,
2013-01-10 22:35:00,37.5,35.1,29.90,ESE,110,11.0,14.0,91,0.21,,RA,0.44,VWS V14.01,2013-01-11 03:35:00,
2013-01-10 22:45:00,37.6,35.2,29.89,ESE,107,11.0,16.0,91,0.20,,RA,0.44,VWS V14.01,2013-01-11 03:45:00,
2013-01-10 22:50:00,37.6,35.2,29.89,ESE,114,8.0,12.0,91,0.19,,RA,0.45,VWS V14.01,2013-01-11 03:50:00,
2013-01-10 22:55:00,37.8,35.4,29.89,ESE,110,6.0,11.0,91,0.17,,RA,0.46,VWS V14.01,2013-01-11 03:55:00,
2013-01-10 23:00:00,37.8,35.4,29.89,ESE,107,8.0,12.0,91,0.12,, +RA,0.46,VWS V14.01,2013-01-11 04:00:00,
2013-01-10 23:05:00,37.8,35.4,29.89,ESE,116,8.0,13.0,91,0.08,, +RA,0.46,VWS V14.01,2013-01-11 04:05:00,
2013-01-10 23:15:00,37.9,35.5,29.88,ESE,109,8.0,12.0,91,0.04,, +RA,0.46,VWS V14.01,2013-01-11 04:15:00,
2013-01-10 23:25:00,38.0,35.6,29.88,ESE,107,8.0,14.0,91,0.03,, +RA,0.47,VWS V14.01,2013-01-11 04:25:00,
2013-01-10 23:30:00,38.2,35.8,29.87,ESE,102,8.0,14.0,91,0.03,, +RA,0.47,VWS V14.01,2013-01-11 04:30:00,
2013-01-10 23:35:00,38.3,35.9,29.87,ESE,113,12.0,12.0,91,0.03,, +RA,0.47,VWS V14.01,2013-01-11 04:35:00,
2013-01-10 23:40:00,38.6,36.5,29.87,ESE,120,11.0,13.0,92,0.04,, +RA,0.48,VWS V14.01,2013-01-11 04:40:00,
2013-01-10 23:45:00,38.8,36.4,29.86,ESE,121,11.0,12.0,91,0.04,, +RA,0.48,VWS V14.01,2013-01-11 04:45:00,
2013-01-10 23:50:00,38.8,36.4,29.86,ESE,106,7.0,12.0,91,0.04,, +RA,0.48,VWS V14.01,2013-01-11 04:50:00,